createdAt,value
2017-09-16T00:00:30.656Z,9.77
2017-09-16T00:02:58.514Z,8.70
2017-09-16T00:05:27.138Z,7.53
2017-09-16T00:07:54.988Z,6.67
2017-09-16T00:10:22.875Z,7.90
2017-09-16T00:12:50.759Z,8.57
2017-09-16T00:15:18.603Z,6.53
2017-09-16T00:17:46.476Z,7.83
2017-09-16T00:20:14.447Z,7.87
2017-09-16T00:22:42.266Z,8.40
2017-09-16T00:25:10.142Z,7.50
2017-09-16T00:27:37.975Z,7.20
2017-09-16T00:30:05.926Z,6.40
2017-09-16T00:32:33.772Z,8.10
2017-09-16T00:35:01.631Z,7.60
2017-09-16T00:37:29.493Z,7.50
2017-09-16T00:39:57.319Z,8.33
2017-09-16T00:42:25.939Z,7.47
2017-09-16T00:44:53.829Z,6.97
2017-09-16T00:47:21.709Z,7.07
2017-09-16T00:49:49.681Z,7.00
2017-09-16T00:52:17.623Z,7.20
2017-09-16T00:54:45.619Z,7.60
2017-09-16T00:57:13.486Z,6.70
2017-09-16T00:59:41.370Z,5.90
2017-09-16T01:02:09.997Z,6.87
2017-09-16T01:04:37.898Z,7.30
2017-09-16T01:07:05.772Z,6.23
2017-09-16T01:09:33.638Z,8.10
2017-09-16T01:12:01.522Z,7.37
2017-09-16T01:14:30.174Z,6.40
2017-09-16T01:16:58.054Z,5.73
2017-09-16T01:19:25.999Z,5.83
2017-09-16T01:21:54.722Z,7.53
2017-09-16T01:24:22.663Z,6.63
2017-09-16T01:26:50.613Z,7.10
2017-09-16T01:29:18.543Z,5.70
2017-09-16T01:31:47.255Z,6.00
2017-09-16T01:34:15.183Z,6.27
2017-09-16T01:36:43.111Z,6.93
2017-09-16T01:39:11.749Z,6.87
2017-09-16T01:41:40.387Z,6.93
2017-09-16T01:44:08.268Z,6.30
2017-09-16T01:46:36.123Z,7.43
2017-09-16T01:49:03.991Z,6.03
2017-09-16T01:51:31.871Z,6.13
2017-09-16T01:53:59.755Z,6.50
2017-09-16T01:56:28.417Z,6.70
2017-09-16T01:58:56.259Z,6.67
2017-09-16T02:01:24.116Z,6.60
2017-09-16T02:03:51.995Z,5.50
2017-09-16T02:06:19.904Z,6.73
2017-09-16T02:08:47.772Z,6.07
2017-09-16T02:11:16.401Z,7.10
2017-09-16T02:13:44.250Z,5.17
2017-09-16T02:16:12.102Z,4.07
2017-09-16T02:18:40.776Z,5.77
2017-09-16T02:21:09.423Z,7.77
2017-09-16T02:23:37.255Z,6.33
2017-09-16T02:26:05.083Z,5.00
2017-09-16T02:28:32.915Z,5.57
2017-09-16T02:31:00.778Z,3.93
2017-09-16T02:33:28.604Z,4.60
2017-09-16T02:35:56.546Z,5.13
2017-09-16T02:38:24.374Z,4.80
2017-09-16T02:40:52.234Z,4.40
2017-09-16T02:43:20.111Z,5.03
2017-09-16T02:45:48.739Z,4.77
2017-09-16T02:48:17.346Z,4.17
2017-09-16T02:50:45.201Z,4.47
2017-09-16T02:53:13.821Z,4.57
2017-09-16T02:55:41.704Z,4.30
2017-09-16T02:58:09.599Z,5.67
2017-09-16T03:00:37.554Z,4.10
2017-09-16T03:03:05.397Z,4.20
2017-09-16T03:05:33.277Z,5.87
2017-09-16T03:08:01.144Z,5.27
2017-09-16T03:10:29.016Z,4.50
2017-09-16T03:12:56.880Z,3.70
2017-09-16T03:15:25.534Z,3.47
2017-09-16T03:17:53.391Z,4.63
2017-09-16T03:20:21.232Z,5.17
2017-09-16T03:22:49.961Z,4.20
2017-09-16T03:25:17.794Z,5.90
2017-09-16T03:27:45.640Z,3.77
2017-09-16T03:30:14.257Z,4.60
2017-09-16T03:32:42.103Z,3.53
2017-09-16T03:35:09.957Z,4.07
2017-09-16T03:37:38.574Z,3.97
2017-09-16T03:40:06.436Z,3.80
2017-09-16T03:42:34.308Z,3.97
2017-09-16T03:45:02.154Z,4.73
2017-09-16T03:47:29.987Z,4.07
2017-09-16T03:49:57.880Z,4.37
2017-09-16T03:52:26.499Z,3.40
2017-09-16T03:54:54.379Z,4.40
2017-09-16T03:57:22.236Z,3.57
2017-09-16T03:59:50.095Z,3.87
2017-09-16T04:02:29.767Z,3.60
2017-09-16T04:04:57.673Z,4.13
2017-09-16T04:07:26.235Z,3.43
2017-09-16T04:09:54.052Z,3.73
2017-09-16T04:12:21.880Z,2.87
2017-09-16T04:14:50.516Z,3.60
2017-09-16T04:17:18.461Z,2.90
2017-09-16T04:19:46.293Z,3.40
2017-09-16T04:22:14.149Z,3.80
2017-09-16T04:24:42.013Z,3.47
2017-09-16T04:27:09.965Z,2.97
2017-09-16T04:29:37.865Z,3.60
2017-09-16T04:32:06.469Z,3.20
2017-09-16T04:34:34.357Z,4.07
2017-09-16T04:37:02.208Z,3.67
2017-09-16T04:39:30.117Z,3.40
2017-09-16T04:41:58.019Z,3.03
2017-09-16T04:44:26.684Z,3.10
2017-09-16T04:46:54.550Z,2.97
2017-09-16T04:49:22.452Z,3.60
2017-09-16T04:51:50.268Z,3.07
2017-09-16T04:54:18.093Z,3.60
2017-09-16T04:56:45.941Z,2.90
2017-09-16T04:59:14.541Z,2.40
2017-09-16T05:01:42.444Z,2.40
2017-09-16T05:04:10.296Z,3.63
2017-09-16T05:06:38.166Z,2.97
2017-09-16T05:09:06.055Z,3.17
2017-09-16T05:11:33.954Z,2.97
2017-09-16T05:14:02.614Z,2.93
2017-09-16T05:16:30.558Z,2.77
2017-09-16T05:18:58.463Z,3.10
2017-09-16T05:21:27.128Z,2.57
2017-09-16T05:23:54.995Z,2.53
2017-09-16T05:26:22.822Z,2.40
2017-09-16T05:28:50.674Z,2.60
2017-09-16T05:31:18.580Z,2.77
2017-09-16T05:33:46.401Z,2.60
2017-09-16T05:36:14.307Z,2.70
2017-09-16T05:38:42.184Z,3.70
2017-09-16T05:41:10.012Z,2.37
2017-09-16T05:43:37.964Z,2.30
2017-09-16T05:46:05.858Z,2.50
2017-09-16T05:48:33.700Z,2.97
2017-09-16T05:51:01.524Z,2.83
2017-09-16T05:53:29.361Z,2.67
2017-09-16T05:55:57.182Z,2.83
2017-09-16T05:58:25.762Z,3.60
2017-09-16T06:00:54.388Z,3.30
2017-09-16T06:03:22.237Z,2.40
2017-09-16T06:05:50.078Z,3.07
2017-09-16T06:08:18.763Z,3.07
2017-09-16T06:10:47.378Z,2.60
2017-09-16T06:13:15.188Z,2.67
2017-09-16T06:15:43.000Z,3.17
2017-09-16T06:18:10.923Z,3.00
2017-09-16T06:20:38.872Z,2.50
2017-09-16T06:23:06.703Z,3.17
2017-09-16T06:25:34.576Z,2.33
2017-09-16T06:28:02.455Z,2.13
2017-09-16T06:30:30.502Z,2.60
2017-09-16T06:32:59.928Z,2.30
2017-09-16T06:35:27.759Z,2.60
2017-09-16T06:37:58.788Z,2.47
2017-09-16T06:40:26.772Z,2.97
2017-09-16T06:42:55.352Z,3.50
2017-09-16T06:45:23.947Z,3.20
2017-09-16T06:47:51.813Z,3.63
2017-09-16T06:50:19.696Z,3.93
2017-09-16T06:52:47.602Z,3.83
2017-09-16T06:55:16.012Z,3.33
2017-09-16T06:57:44.643Z,2.60
2017-09-16T07:00:12.478Z,2.80
2017-09-16T07:02:40.379Z,3.23
2017-09-16T07:05:08.470Z,3.07
2017-09-16T07:07:39.568Z,2.90
2017-09-16T07:10:07.758Z,3.00
2017-09-16T07:12:35.720Z,2.80
2017-09-16T07:15:03.692Z,2.70
2017-09-16T07:17:31.573Z,3.00
2017-09-16T07:19:59.395Z,3.33
2017-09-16T07:22:27.966Z,2.87
2017-09-16T07:24:56.616Z,3.47
2017-09-16T07:27:24.465Z,3.20
2017-09-16T07:29:52.272Z,2.80
2017-09-16T07:32:20.867Z,3.67
2017-09-16T07:34:49.574Z,4.57
2017-09-16T07:37:18.311Z,3.47
2017-09-16T07:39:46.277Z,4.33
2017-09-16T07:42:14.163Z,4.37
2017-09-16T07:44:42.810Z,4.20
2017-09-16T07:47:10.853Z,4.33
2017-09-16T07:49:38.710Z,4.87
2017-09-16T07:52:06.522Z,5.77
2017-09-16T07:54:34.427Z,4.50
2017-09-16T07:57:04.803Z,4.47
2017-09-16T08:43:41.396Z,3.40
2017-09-16T08:46:24.132Z,3.30
2017-09-16T08:49:04.860Z,2.43
2017-09-16T08:55:17.596Z,2.80
2017-09-16T08:57:59.676Z,2.27
2017-09-16T09:00:45.305Z,2.10
2017-09-16T09:03:26.005Z,2.60
2017-09-16T09:06:10.653Z,2.87
2017-09-16T09:08:51.800Z,3.67
2017-09-16T09:11:34.343Z,3.10
2017-09-16T09:14:15.053Z,3.10
2017-09-16T09:16:56.814Z,2.43
2017-09-16T09:19:40.521Z,2.53
2017-09-16T09:22:22.825Z,2.90
2017-09-16T09:25:04.777Z,2.97
2017-09-16T09:27:45.636Z,2.50
2017-09-16T09:30:27.868Z,2.47
2017-09-16T09:33:10.042Z,2.70
2017-09-16T09:35:51.734Z,2.33
2017-09-16T09:38:33.428Z,2.10
2017-09-16T09:41:25.038Z,3.00
2017-09-16T09:44:06.076Z,3.27
2017-09-16T09:46:46.860Z,2.60
2017-09-16T09:49:28.612Z,2.87
2017-09-16T09:52:10.629Z,2.47
2017-09-16T09:54:52.436Z,3.03
2017-09-16T09:57:33.942Z,2.57
2017-09-16T10:00:15.082Z,2.70
2017-09-16T10:02:55.873Z,2.67
2017-09-16T10:05:39.259Z,3.17
2017-09-16T10:08:24.642Z,3.50
2017-09-16T10:11:05.271Z,3.37
2017-09-16T10:13:45.940Z,4.30
2017-09-16T10:16:26.891Z,4.40
2017-09-16T10:19:07.597Z,3.47
2017-09-16T10:21:49.364Z,3.13
2017-09-16T10:24:33.980Z,2.90
2017-09-16T10:27:16.031Z,2.70
2017-09-16T10:29:59.338Z,2.97
2017-09-16T10:32:44.027Z,2.13
2017-09-16T10:35:25.502Z,2.20
2017-09-16T10:37:53.388Z,3.40
2017-09-16T10:43:39.229Z,2.23
2017-09-16T10:46:30.780Z,3.20
2017-09-16T10:49:11.592Z,2.80
2017-09-16T10:51:56.283Z,3.10
2017-09-16T10:54:38.032Z,3.90
2017-09-16T10:57:23.912Z,3.60
2017-09-16T11:00:04.531Z,3.70
2017-09-16T11:02:45.314Z,3.53
2017-09-16T11:08:38.129Z,3.90
2017-09-16T11:11:20.223Z,4.47
2017-09-16T11:14:09.089Z,4.20
2017-09-16T11:16:49.639Z,3.90
2017-09-16T11:19:32.785Z,4.73
2017-09-16T11:22:53.772Z,3.30
2017-09-16T11:25:36.653Z,3.90
2017-09-16T11:28:04.776Z,4.13
2017-09-16T11:34:27.642Z,5.37
2017-09-16T11:37:15.013Z,4.97
2017-09-16T11:40:04.911Z,4.80
2017-09-16T11:42:58.327Z,5.03
2017-09-16T11:52:42.642Z,5.27
2017-09-16T11:58:36.181Z,5.03
2017-09-16T12:01:10.128Z,5.17
2017-09-16T12:07:27.693Z,4.93
2017-09-16T12:09:55.646Z,4.70
2017-09-16T12:15:33.201Z,5.03
2017-09-16T12:18:02.891Z,5.70
2017-09-16T12:20:30.775Z,5.03
2017-09-16T12:22:59.398Z,4.90
2017-09-16T12:25:27.377Z,5.17
2017-09-16T12:27:55.192Z,5.80
2017-09-16T12:30:24.841Z,5.43
2017-09-16T12:32:55.051Z,5.67
2017-09-16T12:35:24.555Z,5.00
2017-09-16T12:37:52.498Z,5.23
2017-09-16T12:40:20.580Z,5.17
2017-09-16T12:42:48.540Z,4.50
2017-09-16T12:45:17.684Z,5.17
2017-09-16T12:47:45.584Z,4.73
2017-09-16T12:50:13.475Z,5.20
2017-09-16T12:52:42.143Z,5.47
2017-09-16T12:55:10.887Z,5.33
2017-09-16T12:57:39.626Z,5.17
2017-09-16T13:00:11.657Z,5.00
2017-09-16T13:02:39.631Z,5.77
2017-09-16T13:05:07.593Z,4.83
2017-09-16T13:07:35.440Z,5.30
2017-09-16T13:10:04.370Z,5.87
2017-09-16T13:12:33.003Z,6.70
2017-09-16T13:15:01.215Z,6.47
2017-09-16T13:17:29.953Z,4.90
2017-09-16T13:19:57.943Z,5.30
2017-09-16T13:22:25.937Z,5.60
2017-09-16T13:24:53.828Z,5.50
2017-09-16T13:27:21.936Z,6.00
2017-09-16T13:29:55.447Z,5.63
2017-09-16T13:37:39.411Z,5.47
2017-09-16T13:40:08.176Z,5.73
2017-09-16T13:42:36.160Z,5.53
2017-09-16T13:45:11.744Z,6.07
2017-09-16T13:47:42.967Z,6.13
2017-09-16T13:50:11.081Z,5.57
2017-09-16T13:52:38.967Z,6.53
2017-09-16T13:55:24.823Z,5.27
2017-09-16T13:57:54.115Z,5.07
2017-09-16T14:00:22.616Z,5.87
2017-09-16T14:03:04.362Z,5.70
2017-09-16T14:05:32.313Z,4.80
2017-09-16T14:08:00.341Z,5.30
2017-09-16T14:10:29.038Z,4.93
2017-09-16T14:12:57.036Z,5.80
2017-09-16T14:15:25.313Z,5.27
2017-09-16T14:17:53.904Z,6.33
2017-09-16T14:20:23.095Z,5.77
2017-09-16T14:22:51.108Z,4.80
2017-09-16T14:25:19.119Z,5.07
2017-09-16T14:27:48.966Z,4.80
2017-09-16T14:30:16.893Z,5.30
2017-09-16T14:32:45.709Z,4.97
2017-09-16T14:35:13.731Z,5.80
2017-09-16T14:37:41.710Z,5.63
2017-09-16T14:40:10.389Z,7.90
2017-09-16T14:42:38.399Z,5.83
2017-09-16T14:45:06.938Z,6.60
2017-09-16T14:47:34.857Z,5.60
2017-09-16T14:50:02.834Z,6.23
2017-09-16T14:52:30.685Z,5.37
2017-09-16T14:55:00.204Z,5.23
2017-09-16T14:57:29.278Z,6.20
2017-09-16T14:59:58.023Z,5.63
2017-09-16T15:02:26.181Z,5.23
2017-09-16T15:04:54.425Z,4.20
2017-09-16T15:07:27.328Z,5.30
2017-09-16T15:09:57.600Z,5.43
2017-09-16T15:12:28.009Z,5.90
2017-09-16T15:14:57.225Z,6.37
2017-09-16T15:17:25.275Z,5.80
2017-09-16T15:19:53.233Z,5.30
2017-09-16T15:22:21.352Z,6.37
2017-09-16T15:24:51.876Z,5.30
2017-09-16T15:27:20.732Z,6.93
2017-09-16T15:29:50.500Z,6.83
2017-09-16T15:32:18.494Z,7.07
2017-09-16T15:34:57.688Z,6.13
2017-09-16T18:02:59.495Z,9.63
2017-09-16T18:12:38.522Z,7.17
2017-09-16T18:18:52.666Z,6.43
2017-09-16T18:22:10.861Z,6.20
2017-09-16T18:25:14.851Z,6.13
2017-09-16T18:27:44.351Z,6.37
2017-09-16T19:10:06.355Z,6.77
2017-09-16T19:12:34.417Z,7.83
2017-09-16T19:15:03.258Z,7.77
2017-09-16T19:17:36.151Z,6.50
2017-09-16T19:20:06.133Z,8.10
2017-09-16T19:22:34.233Z,9.73
2017-09-16T19:25:02.465Z,6.57
2017-09-16T19:27:30.681Z,7.30
2017-09-16T19:29:58.583Z,6.37
2017-09-16T19:32:27.813Z,7.00
2017-09-16T19:34:56.914Z,7.40
2017-09-16T19:37:28.574Z,7.40
2017-09-16T19:39:56.879Z,6.97
2017-09-16T19:42:25.159Z,7.33
2017-09-16T19:44:53.271Z,10.07
2017-09-16T19:47:22.181Z,15.50
2017-09-16T19:49:50.365Z,10.90
2017-09-16T19:52:18.455Z,10.23
2017-09-16T19:54:46.490Z,8.73
2017-09-16T19:57:16.099Z,7.43
2017-09-16T19:59:44.292Z,6.23
2017-09-16T20:02:13.418Z,6.70
2017-09-16T20:04:41.867Z,5.80
2017-09-16T20:07:14.080Z,5.90
2017-09-16T20:09:42.370Z,7.03
2017-09-16T20:12:15.613Z,9.03
2017-09-16T20:14:43.725Z,7.40
2017-09-16T20:17:11.907Z,11.27
2017-09-16T20:19:40.105Z,8.17
2017-09-16T20:22:08.455Z,8.73
2017-09-16T20:24:36.797Z,7.50
2017-09-16T20:27:05.146Z,9.40
2017-09-16T20:29:33.344Z,8.50
2017-09-16T20:32:02.503Z,8.80
2017-09-16T20:34:30.601Z,7.50
2017-09-16T20:37:15.871Z,7.00
2017-09-16T20:39:43.713Z,7.37
2017-09-16T20:42:11.527Z,6.97
2017-09-16T20:44:39.337Z,7.23
2017-09-16T20:47:07.173Z,7.07
2017-09-16T20:49:35.029Z,7.60
2017-09-16T20:52:03.620Z,8.20
2017-09-16T20:54:45.525Z,7.13
2017-09-16T21:00:49.759Z,6.40
2017-09-16T21:03:40.732Z,8.00
2017-09-16T21:09:59.751Z,7.63
2017-09-16T21:16:22.800Z,6.17
2017-09-16T21:18:50.764Z,6.30
2017-09-16T21:21:40.819Z,6.30
2017-09-16T21:24:40.161Z,7.13
2017-09-16T21:44:47.283Z,5.90
2017-09-16T21:47:15.219Z,6.27
2017-09-16T21:49:43.139Z,5.90
2017-09-16T21:52:11.059Z,7.13
2017-09-16T21:54:39.013Z,7.53
2017-09-16T21:57:07.009Z,6.37
2017-09-16T22:09:42.030Z,6.67
2017-09-16T22:12:09.944Z,6.57
2017-09-16T22:14:37.789Z,6.67
2017-09-16T22:17:05.645Z,5.20
2017-09-16T22:19:33.457Z,6.23
2017-09-16T22:22:01.267Z,5.83
2017-09-16T22:24:29.127Z,7.43
2017-09-16T22:26:56.956Z,5.50
2017-09-16T22:29:24.800Z,6.13
2017-09-16T22:31:52.639Z,6.33
2017-09-16T22:34:20.459Z,6.03
2017-09-16T22:36:48.276Z,5.47
2017-09-16T22:39:16.151Z,5.53
2017-09-16T22:41:43.956Z,6.80
2017-09-16T22:44:11.868Z,5.23
2017-09-16T22:46:39.725Z,5.80
2017-09-16T22:49:07.563Z,5.30
2017-09-16T22:51:36.194Z,5.80
2017-09-16T22:54:04.037Z,6.30
2017-09-16T22:56:31.859Z,5.00
2017-09-16T22:58:59.697Z,5.13
2017-09-16T23:01:27.536Z,5.77
2017-09-16T23:03:55.347Z,5.33
2017-09-16T23:06:23.169Z,4.97
2017-09-16T23:08:50.996Z,5.07
2017-09-16T23:11:18.845Z,5.10
2017-09-16T23:13:46.661Z,4.90
2017-09-16T23:16:14.512Z,5.00
2017-09-16T23:18:42.326Z,5.43
2017-09-16T23:21:10.160Z,4.50
2017-09-16T23:23:38.012Z,4.53
2017-09-16T23:26:05.849Z,5.07
2017-09-16T23:28:33.692Z,5.73
2017-09-16T23:31:01.510Z,4.60
2017-09-16T23:33:30.088Z,5.53
2017-09-16T23:35:58.689Z,5.23
2017-09-16T23:38:26.517Z,5.77
2017-09-16T23:40:54.443Z,4.80
2017-09-16T23:43:22.259Z,4.70
2017-09-16T23:45:50.885Z,4.80
2017-09-16T23:48:18.692Z,5.93
2017-09-16T23:50:46.522Z,5.80
2017-09-16T23:53:14.358Z,4.67
2017-09-16T23:55:42.189Z,5.13
2017-09-16T23:58:10.048Z,5.50
